Aérodrome :
LOGIN :

S'inscrire | Disclaimer

   EN    FR    IT 

 










Légende :    VFR   VFR Marginal   IFR   IFR Intensif   IFR Très Intensif
Visi : 
Plafond : 
>= 8 km
>= 3000ft
5 à 8 km
1000 à 3000 ft
1500m à 5 km
500 à 1000 ft
800 à 1500m
200 à 500 ft
< 800m
< 200 ft
Symboles :   Orages  Brouillard  Fortes neiges  Fortes précipitations  Vent > 20 kt
SIGMETs :   Divers  Orages  Givrage  Turbulence  Onde Orograph.  Cendres Volcan.







- Altitude de l'aérodrome : 1345 ft
- Code IATA : FRZ


ETHF - Fritzlar

DERNIER METAR :
  • 231420Z 21010KT 9999 FEW015 BKN037 07/03 Q1022 BLU BLU

METARs EXPIRÉS :
  • 231320Z 22008KT 9999 FEW015 BKN038 07/04 Q1022 BLU BLU
  • 231220Z 20008KT 9999 FEW015 BKN042 06/04 Q1023 BLU BLU

TAF TAF ETHF
Valide du 23 à 15h jusqu'au 24 à 00h UTC


231423Z 2315/2324 20010KT 9999 NSW FEW015 BKN040
BECMG 2317/2319 20012KT 8000 -RA FEW010 BKN015
TEMPO 2319/2324 22015G25KT 4000 -DZRA FEW008 BKN010
Pas de NOTAMs connus pour ce terrain.



MET'MAP, la Météo Aéronautique d'un coup d'oeil ! - Copyright ORBIFLY Décembre 2007 - Disclaimer

ORBIFLY MET'MAP TEAM :

Programmation & Développement : Alexandra Zaïnal
Conception & Développement : Baudouin d'Aumeries
Co-Programmation & Développement : Marc-Olivier Méhu
Soutien technique & logistique : Manuel Goepfert

Contact : metmap@orbifly.com




SOURCES & CREDITS :

   NOAA